createdAt,value
2022-09-22T00:00:09.600Z,8.96
2022-09-22T00:02:39.044Z,8.95
2022-09-22T00:05:09.012Z,8.94
2022-09-22T00:07:38.353Z,8.95
2022-09-22T00:10:08.209Z,8.94
2022-09-22T00:12:37.645Z,8.93
2022-09-22T00:15:09.833Z,8.93
2022-09-22T00:17:39.103Z,8.92
2022-09-22T00:20:08.784Z,8.90
2022-09-22T00:22:38.284Z,8.86
2022-09-22T00:25:09.256Z,8.83
2022-09-22T00:27:39.174Z,8.83
2022-09-22T00:30:09.466Z,8.79
2022-09-22T00:32:42.116Z,8.78
2022-09-22T00:35:10.767Z,8.77
2022-09-22T00:37:40.057Z,8.76
2022-09-22T00:40:10.288Z,8.74
2022-09-22T00:42:39.719Z,8.70
2022-09-22T00:45:12.413Z,8.70
2022-09-22T00:47:41.910Z,8.66
2022-09-22T00:50:17.370Z,8.63
2022-09-22T00:53:04.224Z,8.61
2022-09-22T00:55:35.959Z,8.61
2022-09-22T00:58:07.721Z,8.58
2022-09-22T01:00:37.356Z,8.57
2022-09-22T01:03:09.122Z,8.56
2022-09-22T01:05:38.993Z,8.56
2022-09-22T01:08:09.767Z,8.54
2022-09-22T01:10:39.351Z,8.54
2022-09-22T01:13:24.479Z,8.54
2022-09-22T01:16:08.591Z,8.53
2022-09-22T01:18:56.189Z,8.50
2022-09-22T01:21:37.247Z,8.49
2022-09-22T01:24:43.339Z,8.49
2022-09-22T01:27:18.278Z,8.48
2022-09-22T01:30:07.381Z,8.46
2022-09-22T01:32:51.542Z,8.39
2022-09-22T01:35:40.603Z,8.39
2022-09-22T01:38:34.019Z,8.37
2022-09-22T01:41:12.544Z,8.33
2022-09-22T01:43:48.174Z,8.35
2022-09-22T01:46:26.544Z,8.33
2022-09-22T01:48:58.200Z,8.28
2022-09-22T01:51:30.691Z,8.27
2022-09-22T01:54:05.746Z,8.24
2022-09-22T01:56:35.770Z,8.24
2022-09-22T01:59:07.623Z,8.24
2022-09-22T02:01:49.491Z,8.23
2022-09-22T02:04:34.079Z,8.21
2022-09-22T02:07:11.271Z,8.17
2022-09-22T02:09:41.347Z,8.21
2022-09-22T02:12:10.762Z,8.17
2022-09-22T02:14:40.222Z,8.13
2022-09-22T02:17:10.498Z,8.10
2022-09-22T02:19:41.310Z,8.10
2022-09-22T02:22:12.166Z,8.09
2022-09-22T02:24:43.991Z,8.09
2022-09-22T02:27:20.385Z,8.06
2022-09-22T02:29:52.085Z,8.05
2022-09-22T02:32:22.178Z,8.06
2022-09-22T02:34:51.574Z,8.08
2022-09-22T02:37:23.594Z,8.10
2022-09-22T02:40:23.735Z,8.07
2022-09-22T02:43:29.729Z,8.04
2022-09-22T02:46:23.574Z,8.04
2022-09-22T02:48:55.860Z,8.03
2022-09-22T02:51:25.153Z,8.01
2022-09-22T02:53:54.554Z,7.99
2022-09-22T02:56:24.021Z,8.01
2022-09-22T02:58:58.200Z,7.99
2022-09-22T03:01:24.357Z,7.97
2022-09-22T03:03:54.052Z,7.94
2022-09-22T03:06:23.320Z,7.98
2022-09-22T03:08:52.755Z,7.96
2022-09-22T03:11:21.979Z,7.93
2022-09-22T03:13:51.700Z,7.96
2022-09-22T03:16:21.029Z,7.93
2022-09-22T03:18:50.393Z,7.90
2022-09-22T03:21:19.685Z,7.86
2022-09-22T03:23:49.572Z,7.85
2022-09-22T03:26:19.069Z,7.81
2022-09-22T03:28:48.825Z,7.80
2022-09-22T03:31:18.156Z,7.76
2022-09-22T03:33:52.002Z,7.78
2022-09-22T03:36:18.562Z,7.79
2022-09-22T03:38:47.838Z,7.75
2022-09-22T03:41:17.576Z,7.76
2022-09-22T03:43:46.803Z,7.74
2022-09-22T03:46:16.619Z,7.71
2022-09-22T03:48:45.904Z,7.69
2022-09-22T03:51:15.147Z,7.69
2022-09-22T03:53:44.568Z,7.65
2022-09-22T03:56:16.354Z,7.64
2022-09-22T03:58:45.771Z,7.64
2022-09-22T04:01:15.408Z,7.62
2022-09-22T04:03:44.636Z,7.61
2022-09-22T04:06:14.260Z,7.60
2022-09-22T04:08:43.745Z,7.59
2022-09-22T04:11:13.252Z,7.58
2022-09-22T04:13:46.234Z,7.57
2022-09-22T04:16:13.756Z,7.56
2022-09-22T04:18:43.025Z,7.54
2022-09-22T04:21:12.287Z,7.49
2022-09-22T04:23:41.532Z,7.50
2022-09-22T04:26:10.759Z,7.48
2022-09-22T04:28:40.068Z,7.45
2022-09-22T04:31:09.436Z,7.41
2022-09-22T04:33:40.627Z,7.40
2022-09-22T04:36:09.946Z,7.39
2022-09-22T04:38:39.334Z,7.42
2022-09-22T04:41:08.596Z,7.40
2022-09-22T04:43:38.064Z,7.38
2022-09-22T04:46:07.523Z,7.39
2022-09-22T04:48:36.787Z,7.36
2022-09-22T04:51:06.125Z,7.35
2022-09-22T04:53:35.612Z,7.36
2022-09-22T04:56:05.104Z,7.32
2022-09-22T04:58:34.318Z,7.31
2022-09-22T05:01:05.752Z,7.32
2022-09-22T05:03:36.761Z,7.31
2022-09-22T05:06:07.438Z,7.27
2022-09-22T05:08:36.696Z,7.30
2022-09-22T05:11:07.962Z,7.28
2022-09-22T05:13:39.122Z,7.24
2022-09-22T05:16:09.130Z,7.21
2022-09-22T05:18:39.558Z,7.20
2022-09-22T05:21:08.949Z,7.20
2022-09-22T05:23:39.653Z,7.22
2022-09-22T05:26:09.049Z,7.23
2022-09-22T05:28:38.448Z,7.22
2022-09-22T05:31:08.056Z,7.21
2022-09-22T05:33:38.934Z,7.21
2022-09-22T05:36:08.932Z,7.22
2022-09-22T05:38:38.251Z,7.26
2022-09-22T05:41:07.652Z,7.28
2022-09-22T05:43:37.304Z,7.32
2022-09-22T05:46:07.211Z,7.33
2022-09-22T05:48:36.471Z,7.32
2022-09-22T05:51:05.846Z,7.33
2022-09-22T05:53:35.061Z,7.43
2022-09-22T05:56:04.472Z,7.46
2022-09-22T05:58:33.761Z,7.50
2022-09-22T06:01:04.557Z,7.56
2022-09-22T06:03:34.048Z,7.67
2022-09-22T06:06:03.406Z,7.72
2022-09-22T06:08:33.161Z,7.75
2022-09-22T06:11:02.577Z,7.82
2022-09-22T06:13:31.968Z,7.88
2022-09-22T06:16:05.196Z,7.96
2022-09-22T06:18:36.374Z,8.02
2022-09-22T06:21:07.094Z,8.11
2022-09-22T06:23:40.610Z,8.23
2022-09-22T06:26:07.785Z,9.18
2022-09-22T06:28:37.197Z,9.98
2022-09-22T06:31:07.061Z,9.65
2022-09-22T06:33:36.415Z,9.47
2022-09-22T06:36:07.885Z,9.44
2022-09-22T06:38:37.512Z,9.33
2022-09-22T06:41:07.376Z,9.44
2022-09-22T06:43:38.038Z,9.80
2022-09-22T06:46:09.132Z,9.84
2022-09-22T06:48:38.660Z,9.82
2022-09-22T06:51:08.505Z,9.71
2022-09-22T06:53:39.106Z,9.65
2022-09-22T06:56:08.907Z,9.60
2022-09-22T06:58:58.558Z,9.58
2022-09-22T07:01:10.074Z,9.67
2022-09-22T07:03:41.118Z,9.71
2022-09-22T07:06:11.002Z,9.77
2022-09-22T07:08:40.400Z,9.84
2022-09-22T07:11:10.767Z,9.92
2022-09-22T07:13:42.274Z,9.92
2022-09-22T07:16:15.303Z,9.99
2022-09-22T07:18:47.379Z,10.06
2022-09-22T07:21:22.860Z,10.16
2022-09-22T07:23:55.050Z,10.23
2022-09-22T07:26:30.802Z,10.35
2022-09-22T07:29:01.815Z,10.41
2022-09-22T07:31:34.132Z,10.47
2022-09-22T07:34:03.403Z,10.57
2022-09-22T07:36:34.454Z,10.60
2022-09-22T07:39:07.497Z,10.67
2022-09-22T07:41:38.949Z,10.80
2022-09-22T07:44:26.480Z,10.86
2022-09-22T07:46:55.771Z,11.02
2022-09-22T07:49:25.177Z,11.14
2022-09-22T07:51:55.033Z,11.34
2022-09-22T07:54:25.724Z,11.37
2022-09-22T07:57:02.161Z,11.35
2022-09-22T07:59:31.578Z,11.53
2022-09-22T08:02:02.211Z,11.81
2022-09-22T08:04:32.824Z,12.01
2022-09-22T08:07:02.204Z,12.14
2022-09-22T08:09:33.203Z,12.29
2022-09-22T08:12:02.781Z,12.43
2022-09-22T08:14:32.188Z,12.57
2022-09-22T08:17:01.452Z,12.70
2022-09-22T08:19:32.395Z,12.86
2022-09-22T08:22:01.610Z,12.88
2022-09-22T08:24:31.250Z,12.98
2022-09-22T08:27:00.549Z,12.98
2022-09-22T08:29:30.537Z,13.32
2022-09-22T08:31:59.771Z,13.60
2022-09-22T08:34:29.197Z,13.83
2022-09-22T08:36:58.583Z,13.83
2022-09-22T08:39:28.105Z,14.06
2022-09-22T08:42:17.156Z,14.19
2022-09-22T08:44:58.404Z,14.39
2022-09-22T08:47:48.682Z,14.12
2022-09-22T08:50:44.590Z,14.31
2022-09-22T08:53:16.453Z,15.15
2022-09-22T08:55:48.197Z,16.46
2022-09-22T08:58:38.607Z,18.14
2022-09-22T09:01:30.506Z,19.71
2022-09-22T09:04:07.549Z,21.97
2022-09-22T09:06:46.738Z,21.94
2022-09-22T09:09:40.462Z,21.82
2022-09-22T09:12:29.646Z,21.13
2022-09-22T09:15:29.335Z,20.05
2022-09-22T09:18:01.871Z,22.39
2022-09-22T09:20:39.951Z,23.97
2022-09-22T09:23:16.246Z,25.57
2022-09-22T09:25:48.175Z,23.93
2022-09-22T09:28:32.510Z,24.01
2022-09-22T09:31:07.820Z,25.74
2022-09-22T09:33:46.091Z,26.42
2022-09-22T09:36:20.584Z,26.27
2022-09-22T09:38:54.987Z,27.25
2022-09-22T09:41:26.334Z,27.86
2022-09-22T09:43:56.476Z,25.81
2022-09-22T09:46:38.234Z,26.82
2022-09-22T09:49:10.587Z,27.12
2022-09-22T09:51:43.174Z,27.00
2022-09-22T09:54:17.356Z,25.58
2022-09-22T09:57:12.175Z,25.33
2022-09-22T10:00:02.358Z,24.39
2022-09-22T10:02:36.388Z,26.73
2022-09-22T10:05:20.739Z,26.86
2022-09-22T10:07:53.267Z,27.38
2022-09-22T10:10:34.175Z,25.36
2022-09-22T10:13:09.483Z,26.16
2022-09-22T10:15:41.159Z,24.11
2022-09-22T10:18:28.658Z,22.45
2022-09-22T10:21:07.123Z,24.06
2022-09-22T10:23:36.440Z,25.68
2022-09-22T10:26:26.864Z,26.21
2022-09-22T10:29:19.012Z,26.32
2022-09-22T10:32:13.739Z,27.55
2022-09-22T10:34:47.912Z,27.68
2022-09-22T10:37:19.129Z,27.64
2022-09-22T10:39:53.278Z,28.31
2022-09-22T10:42:34.563Z,26.42
2022-09-22T10:45:10.259Z,26.78
2022-09-22T10:47:54.937Z,28.31
2022-09-22T10:50:28.388Z,29.13
2022-09-22T10:53:03.518Z,27.56
2022-09-22T10:55:38.239Z,28.04
2022-09-22T10:58:10.776Z,28.42
2022-09-22T11:00:42.402Z,28.34
2022-09-22T11:03:41.863Z,25.90
2022-09-22T11:06:44.315Z,26.89
2022-09-22T11:09:56.194Z,26.17
2022-09-22T11:12:55.585Z,26.94
2022-09-22T11:15:33.633Z,26.18
2022-09-22T11:18:15.034Z,26.49
2022-09-22T11:20:45.992Z,25.90
2022-09-22T11:23:39.655Z,23.77
2022-09-22T11:26:14.642Z,25.18
2022-09-22T11:28:54.900Z,25.35
2022-09-22T11:31:27.566Z,24.61
2022-09-22T11:34:02.979Z,25.84
2022-09-22T11:36:41.060Z,25.30
2022-09-22T11:39:28.555Z,24.51
2022-09-22T11:42:03.485Z,24.63
2022-09-22T11:44:52.502Z,23.48
2022-09-22T11:47:33.838Z,24.88
2022-09-22T11:50:18.145Z,25.95
2022-09-22T11:53:07.375Z,25.87
2022-09-22T11:56:05.234Z,26.17
2022-09-22T11:58:35.421Z,27.04
2022-09-22T12:01:13.579Z,25.90
2022-09-22T12:03:58.133Z,26.63
2022-09-22T12:06:30.648Z,26.84
2022-09-22T12:09:05.529Z,26.00
2022-09-22T12:11:36.492Z,24.07
2022-09-22T12:14:06.410Z,23.61
2022-09-22T12:16:40.370Z,23.25
2022-09-22T12:19:32.740Z,23.20
2022-09-22T12:22:13.895Z,22.88
2022-09-22T12:24:47.553Z,23.34
2022-09-22T12:27:22.679Z,23.34
2022-09-22T12:30:03.958Z,23.84
2022-09-22T12:32:41.918Z,23.78
2022-09-22T12:35:23.750Z,22.96
2022-09-22T12:37:54.681Z,22.97
2022-09-22T12:40:27.262Z,23.47
2022-09-22T12:42:56.568Z,22.73
2022-09-22T12:45:34.188Z,23.28
2022-09-22T12:48:09.814Z,23.28
2022-09-22T12:50:42.385Z,23.66
2022-09-22T12:53:14.748Z,23.37
2022-09-22T12:55:44.039Z,22.45
2022-09-22T12:58:25.488Z,23.42
2022-09-22T13:00:56.813Z,24.05
2022-09-22T13:03:30.488Z,23.80
2022-09-22T13:06:03.777Z,23.28
2022-09-22T13:08:36.949Z,23.08
2022-09-22T13:11:08.424Z,23.19
2022-09-22T13:13:48.219Z,22.59
2022-09-22T13:16:20.804Z,22.72
2022-09-22T13:18:55.897Z,21.73
2022-09-22T13:21:28.432Z,21.22
2022-09-22T13:24:01.450Z,21.38
2022-09-22T13:26:39.378Z,21.45
2022-09-22T13:29:14.179Z,21.49
2022-09-22T13:31:45.740Z,21.80
2022-09-22T13:34:32.014Z,22.08
2022-09-22T13:37:07.978Z,21.98
2022-09-22T13:39:43.422Z,22.52
2022-09-22T13:42:15.551Z,23.10
2022-09-22T13:44:47.665Z,23.74
2022-09-22T13:47:19.618Z,22.22
2022-09-22T13:49:52.693Z,22.44
2022-09-22T13:52:24.839Z,22.72
2022-09-22T13:54:56.080Z,22.03
2022-09-22T13:57:34.665Z,21.35
2022-09-22T14:00:05.700Z,21.72
2022-09-22T14:02:36.841Z,21.80
2022-09-22T14:05:08.191Z,21.82
2022-09-22T14:07:55.327Z,21.94
2022-09-22T14:10:11.902Z,21.35
2022-09-22T14:12:41.309Z,21.09
2022-09-22T14:15:40.296Z,21.08
2022-09-22T14:18:28.041Z,21.21
2022-09-22T14:20:58.773Z,21.95
2022-09-22T14:23:30.450Z,22.10
2022-09-22T14:26:02.656Z,21.42
2022-09-22T14:28:34.735Z,20.89
2022-09-22T14:31:05.700Z,20.75
2022-09-22T14:33:37.949Z,20.42
2022-09-22T14:36:08.256Z,20.50
2022-09-22T14:38:47.714Z,20.61
2022-09-22T14:41:24.914Z,20.14
2022-09-22T14:43:54.642Z,20.34
2022-09-22T14:46:38.679Z,20.17
2022-09-22T14:49:43.798Z,20.34
2022-09-22T14:52:30.896Z,20.42
2022-09-22T14:55:03.897Z,20.01
2022-09-22T14:57:33.445Z,19.81
2022-09-22T15:00:22.211Z,19.96
2022-09-22T15:02:55.755Z,20.18
2022-09-22T15:05:30.414Z,20.09
2022-09-22T15:08:00.938Z,19.94
2022-09-22T15:10:32.779Z,19.83
2022-09-22T15:13:32.374Z,20.08
2022-09-22T15:16:02.002Z,20.18
2022-09-22T15:18:31.388Z,20.39
2022-09-22T15:21:08.391Z,19.71
2022-09-22T15:23:48.031Z,19.78
2022-09-22T15:26:24.979Z,19.83
2022-09-22T15:28:54.168Z,19.27
2022-09-22T15:31:30.091Z,19.42
2022-09-22T15:34:03.093Z,19.54
2022-09-22T15:36:33.686Z,19.25
2022-09-22T15:39:07.838Z,18.75
2022-09-22T15:41:38.560Z,18.85
2022-09-22T15:44:09.270Z,18.74
2022-09-22T15:46:39.301Z,18.65
2022-09-22T15:49:14.982Z,18.67
2022-09-22T15:51:46.028Z,18.60
2022-09-22T15:54:16.674Z,18.63
2022-09-22T15:56:48.145Z,18.68
2022-09-22T15:59:21.801Z,18.71
2022-09-22T16:01:56.238Z,18.60
2022-09-22T16:04:31.653Z,18.57
2022-09-22T16:07:04.751Z,18.41
2022-09-22T16:09:34.443Z,18.31
2022-09-22T16:12:05.643Z,18.35
2022-09-22T16:14:36.757Z,18.33
2022-09-22T16:17:07.794Z,18.17
2022-09-22T16:19:37.061Z,17.97
2022-09-22T16:22:06.516Z,17.79
2022-09-22T16:24:35.893Z,17.80
2022-09-22T16:27:07.131Z,17.70
2022-09-22T16:29:37.606Z,17.57
2022-09-22T16:32:07.240Z,17.51
2022-09-22T16:34:37.369Z,17.34
2022-09-22T16:37:06.581Z,17.26
2022-09-22T16:39:35.863Z,17.18
2022-09-22T16:42:05.199Z,17.07
2022-09-22T16:44:34.512Z,16.99
2022-09-22T16:47:04.263Z,16.94
2022-09-22T16:49:34.087Z,16.83
2022-09-22T16:52:03.368Z,16.78
2022-09-22T16:54:33.806Z,16.68
2022-09-22T16:57:03.093Z,16.59
2022-09-22T16:59:33.435Z,16.43
2022-09-22T17:02:02.703Z,16.23
2022-09-22T17:04:32.595Z,16.10
2022-09-22T17:07:01.862Z,15.95
2022-09-22T17:09:32.283Z,15.79
2022-09-22T17:12:02.731Z,15.70
2022-09-22T17:14:32.720Z,15.60
2022-09-22T17:17:03.574Z,15.47
2022-09-22T17:19:33.004Z,15.30
2022-09-22T17:22:02.596Z,15.22
2022-09-22T17:24:32.067Z,15.07
2022-09-22T17:27:01.289Z,15.00
2022-09-22T17:29:32.932Z,14.88
2022-09-22T17:32:08.022Z,14.79
2022-09-22T17:34:38.349Z,14.65
2022-09-22T17:37:09.401Z,14.60
2022-09-22T17:39:38.783Z,14.51
2022-09-22T17:42:08.737Z,14.38
2022-09-22T17:44:37.979Z,14.38
2022-09-22T17:47:25.220Z,14.33
2022-09-22T17:50:12.378Z,14.28
2022-09-22T17:52:59.645Z,14.26
2022-09-22T17:55:29.442Z,14.25
2022-09-22T17:57:58.806Z,14.14
2022-09-22T18:00:28.270Z,14.07
2022-09-22T18:02:58.518Z,14.00
2022-09-22T18:05:28.219Z,13.92
2022-09-22T18:07:58.581Z,13.83
2022-09-22T18:10:31.938Z,13.75
2022-09-22T18:13:02.448Z,13.66
2022-09-22T18:15:31.910Z,13.61
2022-09-22T18:18:01.292Z,13.57
2022-09-22T18:20:32.532Z,13.53
2022-09-22T18:23:03.424Z,13.49
2022-09-22T18:25:34.149Z,13.45
2022-09-22T18:28:05.150Z,13.43
2022-09-22T18:30:34.432Z,13.42
2022-09-22T18:33:03.819Z,13.36
2022-09-22T18:35:33.173Z,13.34
2022-09-22T18:38:06.060Z,13.29
2022-09-22T18:40:35.460Z,13.24
2022-09-22T18:43:04.914Z,13.22
2022-09-22T18:45:35.912Z,13.17
2022-09-22T18:48:07.044Z,13.16
2022-09-22T18:50:36.629Z,13.16
2022-09-22T18:53:05.931Z,13.16
2022-09-22T18:55:35.207Z,13.18
2022-09-22T18:58:04.560Z,13.18
2022-09-22T19:00:33.804Z,13.21
2022-09-22T19:03:03.288Z,13.25
2022-09-22T19:05:32.767Z,13.23
2022-09-22T19:08:02.142Z,13.20
2022-09-22T19:10:31.482Z,13.17
2022-09-22T19:13:02.207Z,13.12
2022-09-22T19:15:31.582Z,13.08
2022-09-22T19:18:00.855Z,13.08
2022-09-22T19:20:31.186Z,13.06
2022-09-22T19:23:00.524Z,13.06
2022-09-22T19:25:30.074Z,13.04
2022-09-22T19:28:01.169Z,13.01
2022-09-22T19:30:31.607Z,13.01
2022-09-22T19:33:01.911Z,12.97
2022-09-22T19:35:31.132Z,12.95
2022-09-22T19:38:02.215Z,12.92
2022-09-22T19:40:33.520Z,12.90
2022-09-22T19:43:03.367Z,12.91
2022-09-22T19:45:32.854Z,12.82
2022-09-22T19:48:02.540Z,12.75
2022-09-22T19:50:31.774Z,12.71
2022-09-22T19:53:01.008Z,12.67
2022-09-22T19:55:30.236Z,12.64
2022-09-22T19:58:00.161Z,12.63
2022-09-22T20:00:30.576Z,12.64
2022-09-22T20:03:02.894Z,12.60
2022-09-22T20:05:37.864Z,12.56
2022-09-22T20:08:15.897Z,12.52
2022-09-22T20:10:47.011Z,12.51
2022-09-22T20:13:34.722Z,12.47
2022-09-22T20:16:04.555Z,12.40
2022-09-22T20:18:37.281Z,12.37
2022-09-22T20:21:07.397Z,12.31
2022-09-22T20:23:37.156Z,12.27
2022-09-22T20:26:06.854Z,12.26
2022-09-22T20:31:55.780Z,12.24
2022-09-22T20:34:25.008Z,12.24
2022-09-22T20:36:54.366Z,12.23
2022-09-22T20:39:23.807Z,12.22
2022-09-22T20:41:53.336Z,12.18
2022-09-22T20:44:22.714Z,12.15
2022-09-22T20:46:51.938Z,12.11
2022-09-22T20:49:22.286Z,12.07
2022-09-22T20:51:51.554Z,12.02
2022-09-22T20:54:24.480Z,11.99
2022-09-22T20:56:54.445Z,11.97
2022-09-22T20:59:23.772Z,11.96
2022-09-22T21:01:53.054Z,11.95
2022-09-22T21:04:23.486Z,11.91
2022-09-22T21:06:55.796Z,11.84
2022-09-22T21:09:42.949Z,11.77
2022-09-22T21:12:13.580Z,11.77
2022-09-22T21:14:44.440Z,11.75
2022-09-22T21:17:14.716Z,11.75
2022-09-22T21:19:45.786Z,11.72
2022-09-22T21:22:15.173Z,11.70
2022-09-22T21:24:46.401Z,11.68
2022-09-22T21:27:15.986Z,11.63
2022-09-22T21:29:45.357Z,11.59
2022-09-22T21:32:14.844Z,11.58
2022-09-22T21:34:44.373Z,11.53
2022-09-22T21:37:14.557Z,11.54
2022-09-22T21:39:43.875Z,11.52
2022-09-22T21:42:13.219Z,11.52
2022-09-22T21:44:42.518Z,11.48
2022-09-22T21:47:11.750Z,11.47
2022-09-22T21:49:41.181Z,11.42
2022-09-22T21:52:10.398Z,11.39
2022-09-22T21:54:39.710Z,11.38
2022-09-22T21:57:08.953Z,11.37
2022-09-22T21:59:38.257Z,11.37
2022-09-22T22:02:07.827Z,11.33
2022-09-22T22:04:37.134Z,11.31
2022-09-22T22:07:06.540Z,11.30
2022-09-22T22:09:35.764Z,11.28
2022-09-22T22:12:05.246Z,11.23
2022-09-22T22:14:34.857Z,11.24
2022-09-22T22:17:05.683Z,11.22
2022-09-22T22:19:35.019Z,11.21
2022-09-22T22:22:05.237Z,11.21
2022-09-22T22:24:36.156Z,11.19
2022-09-22T22:27:09.809Z,11.20
2022-09-22T22:29:39.619Z,11.20
2022-09-22T22:32:10.409Z,11.23
2022-09-22T22:34:39.869Z,11.25
2022-09-22T22:37:10.740Z,11.24
2022-09-22T22:39:40.074Z,11.25
2022-09-22T22:42:09.345Z,11.19
2022-09-22T22:44:38.683Z,11.17
2022-09-22T22:47:08.628Z,11.17
2022-09-22T22:49:38.329Z,11.16
2022-09-22T22:52:07.769Z,11.13
2022-09-22T22:54:36.995Z,11.07
2022-09-22T22:57:06.578Z,11.09
2022-09-22T22:59:35.770Z,11.08
2022-09-22T23:02:05.048Z,11.13
2022-09-22T23:04:34.280Z,11.17
2022-09-22T23:07:03.566Z,11.16
2022-09-22T23:09:32.763Z,11.19
2022-09-22T23:12:02.232Z,11.17
2022-09-22T23:14:31.442Z,11.19
2022-09-22T23:17:00.727Z,11.19
2022-09-22T23:19:29.952Z,11.21
2022-09-22T23:21:59.457Z,11.21
2022-09-22T23:24:28.742Z,11.18
2022-09-22T23:26:58.628Z,11.14
2022-09-22T23:29:27.843Z,11.11
2022-09-22T23:31:57.199Z,11.07
2022-09-22T23:34:26.446Z,11.04
2022-09-22T23:36:55.787Z,11.05
2022-09-22T23:39:25.068Z,11.04
2022-09-22T23:41:55.275Z,11.01
2022-09-22T23:44:24.512Z,10.98
2022-09-22T23:46:53.928Z,10.96
2022-09-22T23:49:23.146Z,10.93
2022-09-22T23:51:52.499Z,10.91
2022-09-22T23:54:21.729Z,10.90
2022-09-22T23:56:51.005Z,10.89
2022-09-22T23:59:20.221Z,10.89
